sensor_id;sensor_type;location;lat;lon;timestamp;P1;durP1;ratioP1;P2;durP2;ratioP2
45408;SDS011;31162;51.076;3.784;2023-09-12T00:01:16;52.33;;;33.38;;
45408;SDS011;31162;51.076;3.784;2023-09-12T00:03:41;56.15;;;33.25;;
45408;SDS011;31162;51.076;3.784;2023-09-12T00:06:07;54.38;;;34.33;;
45408;SDS011;31162;51.076;3.784;2023-09-12T00:08:33;52.22;;;33.05;;
45408;SDS011;31162;51.076;3.784;2023-09-12T00:11:00;49.92;;;33.38;;
45408;SDS011;31162;51.076;3.784;2023-09-12T00:13:36;50.03;;;32.97;;
45408;SDS011;31162;51.076;3.784;2023-09-12T00:16:02;55.35;;;34.58;;
45408;SDS011;31162;51.076;3.784;2023-09-12T00:18:28;48.10;;;32.58;;
45408;SDS011;31162;51.076;3.784;2023-09-12T00:20:53;49.80;;;33.40;;
45408;SDS011;31162;51.076;3.784;2023-09-12T00:23:20;49.17;;;33.35;;
45408;SDS011;31162;51.076;3.784;2023-09-12T00:25:48;53.95;;;34.00;;
45408;SDS011;31162;51.076;3.784;2023-09-12T00:28:15;52.25;;;33.75;;
45408;SDS011;31162;51.076;3.784;2023-09-12T00:30:40;53.75;;;34.35;;
45408;SDS011;31162;51.076;3.784;2023-09-12T00:33:06;51.38;;;33.45;;
45408;SDS011;31162;51.076;3.784;2023-09-12T00:35:31;50.55;;;34.47;;
45408;SDS011;31162;51.076;3.784;2023-09-12T00:37:57;53.47;;;34.45;;
45408;SDS011;31162;51.076;3.784;2023-09-12T00:40:23;54.67;;;33.92;;
45408;SDS011;31162;51.076;3.784;2023-09-12T00:42:51;56.28;;;34.88;;
45408;SDS011;31162;51.076;3.784;2023-09-12T00:45:16;53.40;;;34.08;;
45408;SDS011;31162;51.076;3.784;2023-09-12T00:47:43;53.13;;;34.75;;
45408;SDS011;31162;51.076;3.784;2023-09-12T00:50:09;50.78;;;34.83;;
45408;SDS011;31162;51.076;3.784;2023-09-12T00:52:35;53.85;;;35.67;;
45408;SDS011;31162;51.076;3.784;2023-09-12T00:55:03;55.97;;;35.33;;
45408;SDS011;31162;51.076;3.784;2023-09-12T00:57:30;53.78;;;35.25;;
45408;SDS011;31162;51.076;3.784;2023-09-12T00:59:57;52.22;;;34.03;;
45408;SDS011;31162;51.076;3.784;2023-09-12T01:02:23;51.97;;;34.67;;
45408;SDS011;31162;51.076;3.784;2023-09-12T01:04:50;53.20;;;34.97;;
45408;SDS011;31162;51.076;3.784;2023-09-12T01:07:16;54.20;;;36.80;;
45408;SDS011;31162;51.076;3.784;2023-09-12T01:09:42;52.05;;;35.00;;
45408;SDS011;31162;51.076;3.784;2023-09-12T01:12:08;50.30;;;34.88;;
45408;SDS011;31162;51.076;3.784;2023-09-12T01:14:33;56.38;;;36.53;;
45408;SDS011;31162;51.076;3.784;2023-09-12T01:16:59;58.90;;;35.03;;
45408;SDS011;31162;51.076;3.784;2023-09-12T01:19:26;51.38;;;34.88;;
45408;SDS011;31162;51.076;3.784;2023-09-12T01:27:42;53.40;;;35.25;;
45408;SDS011;31162;51.076;3.784;2023-09-12T01:30:12;59.70;;;36.13;;
45408;SDS011;31162;51.076;3.784;2023-09-12T01:32:40;55.83;;;35.80;;
45408;SDS011;31162;51.076;3.784;2023-09-12T01:35:07;60.83;;;37.72;;
45408;SDS011;31162;51.076;3.784;2023-09-12T01:37:33;53.78;;;36.05;;
45408;SDS011;31162;51.076;3.784;2023-09-12T01:39:59;53.25;;;36.63;;
45408;SDS011;31162;51.076;3.784;2023-09-12T01:42:27;53.60;;;36.08;;
45408;SDS011;31162;51.076;3.784;2023-09-12T01:45:04;57.92;;;36.55;;
45408;SDS011;31162;51.076;3.784;2023-09-12T01:47:30;54.05;;;36.15;;
45408;SDS011;31162;51.076;3.784;2023-09-12T01:49:58;50.58;;;34.30;;
45408;SDS011;31162;51.076;3.784;2023-09-12T01:52:27;47.25;;;34.63;;
45408;SDS011;31162;51.076;3.784;2023-09-12T01:54:53;47.97;;;34.22;;
45408;SDS011;31162;51.076;3.784;2023-09-12T01:57:20;47.40;;;32.90;;
45408;SDS011;31162;51.076;3.784;2023-09-12T01:59:47;52.90;;;33.03;;
45408;SDS011;31162;51.076;3.784;2023-09-12T02:02:14;49.00;;;34.15;;
45408;SDS011;31162;51.076;3.784;2023-09-12T02:04:57;45.22;;;31.85;;
45408;SDS011;31162;51.076;3.784;2023-09-12T02:07:38;47.47;;;32.83;;
45408;SDS011;31162;51.076;3.784;2023-09-12T02:10:05;47.17;;;32.55;;
45408;SDS011;31162;51.076;3.784;2023-09-12T02:12:31;53.25;;;32.90;;
45408;SDS011;31162;51.076;3.784;2023-09-12T02:14:57;51.15;;;33.15;;
45408;SDS011;31162;51.076;3.784;2023-09-12T02:17:23;49.58;;;32.72;;
45408;SDS011;31162;51.076;3.784;2023-09-12T02:19:48;45.72;;;32.95;;
45408;SDS011;31162;51.076;3.784;2023-09-12T02:22:14;50.30;;;32.88;;
45408;SDS011;31162;51.076;3.784;2023-09-12T02:24:40;44.95;;;31.55;;
45408;SDS011;31162;51.076;3.784;2023-09-12T02:27:05;53.22;;;35.17;;
45408;SDS011;31162;51.076;3.784;2023-09-12T02:29:31;51.60;;;35.08;;
45408;SDS011;31162;51.076;3.784;2023-09-12T02:31:57;53.65;;;34.28;;
45408;SDS011;31162;51.076;3.784;2023-09-12T02:34:23;48.53;;;33.78;;
45408;SDS011;31162;51.076;3.784;2023-09-12T02:36:49;48.55;;;34.60;;
45408;SDS011;31162;51.076;3.784;2023-09-12T02:39:15;54.60;;;36.38;;
45408;SDS011;31162;51.076;3.784;2023-09-12T02:41:41;54.50;;;36.92;;
45408;SDS011;31162;51.076;3.784;2023-09-12T02:44:06;49.40;;;34.22;;
45408;SDS011;31162;51.076;3.784;2023-09-12T02:46:32;55.92;;;35.58;;
45408;SDS011;31162;51.076;3.784;2023-09-12T02:48:58;53.67;;;35.13;;
45408;SDS011;31162;51.076;3.784;2023-09-12T02:51:27;51.75;;;35.58;;
45408;SDS011;31162;51.076;3.784;2023-09-12T02:53:53;57.75;;;35.92;;
45408;SDS011;31162;51.076;3.784;2023-09-12T02:56:19;51.03;;;34.65;;
45408;SDS011;31162;51.076;3.784;2023-09-12T02:58:50;52.97;;;34.65;;
45408;SDS011;31162;51.076;3.784;2023-09-12T03:01:16;58.75;;;35.45;;
45408;SDS011;31162;51.076;3.784;2023-09-12T03:03:43;51.60;;;33.38;;
45408;SDS011;31162;51.076;3.784;2023-09-12T03:06:12;53.25;;;34.33;;
45408;SDS011;31162;51.076;3.784;2023-09-12T03:08:41;57.90;;;36.28;;
45408;SDS011;31162;51.076;3.784;2023-09-12T03:11:08;51.60;;;33.75;;
45408;SDS011;31162;51.076;3.784;2023-09-12T03:13:34;50.97;;;34.47;;
45408;SDS011;31162;51.076;3.784;2023-09-12T03:16:00;54.80;;;34.15;;
45408;SDS011;31162;51.076;3.784;2023-09-12T03:18:25;55.35;;;34.97;;
45408;SDS011;31162;51.076;3.784;2023-09-12T03:20:51;49.70;;;34.38;;
45408;SDS011;31162;51.076;3.784;2023-09-12T03:23:18;54.13;;;34.33;;
45408;SDS011;31162;51.076;3.784;2023-09-12T03:25:44;57.45;;;35.45;;
45408;SDS011;31162;51.076;3.784;2023-09-12T03:28:10;53.30;;;33.85;;
45408;SDS011;31162;51.076;3.784;2023-09-12T03:30:36;50.42;;;33.83;;
45408;SDS011;31162;51.076;3.784;2023-09-12T03:33:03;57.92;;;35.45;;
45408;SDS011;31162;51.076;3.784;2023-09-12T03:35:30;53.28;;;34.88;;
45408;SDS011;31162;51.076;3.784;2023-09-12T03:37:57;57.80;;;35.13;;
45408;SDS011;31162;51.076;3.784;2023-09-12T03:40:22;56.00;;;35.47;;
45408;SDS011;31162;51.076;3.784;2023-09-12T03:42:48;61.58;;;35.90;;
45408;SDS011;31162;51.076;3.784;2023-09-12T03:45:14;58.42;;;36.00;;
45408;SDS011;31162;51.076;3.784;2023-09-12T03:47:39;130.00;;;116.43;;
45408;SDS011;31162;51.076;3.784;2023-09-12T03:50:05;62.63;;;40.47;;
45408;SDS011;31162;51.076;3.784;2023-09-12T03:52:31;55.97;;;35.10;;
45408;SDS011;31162;51.076;3.784;2023-09-12T03:54:57;60.45;;;36.70;;
45408;SDS011;31162;51.076;3.784;2023-09-12T03:57:22;69.25;;;45.83;;
45408;SDS011;31162;51.076;3.784;2023-09-12T03:59:50;61.72;;;36.92;;
45408;SDS011;31162;51.076;3.784;2023-09-12T04:02:16;61.25;;;37.80;;
45408;SDS011;31162;51.076;3.784;2023-09-12T04:04:43;63.60;;;36.63;;
45408;SDS011;31162;51.076;3.784;2023-09-12T04:07:08;63.15;;;37.13;;
45408;SDS011;31162;51.076;3.784;2023-09-12T04:09:34;61.55;;;35.92;;
45408;SDS011;31162;51.076;3.784;2023-09-12T04:12:00;65.35;;;38.08;;
45408;SDS011;31162;51.076;3.784;2023-09-12T04:14:26;62.70;;;35.85;;
45408;SDS011;31162;51.076;3.784;2023-09-12T04:16:52;66.38;;;42.83;;
45408;SDS011;31162;51.076;3.784;2023-09-12T04:19:17;63.53;;;36.42;;
45408;SDS011;31162;51.076;3.784;2023-09-12T04:21:43;65.32;;;36.83;;
45408;SDS011;31162;51.076;3.784;2023-09-12T04:24:09;67.80;;;37.30;;
45408;SDS011;31162;51.076;3.784;2023-09-12T04:26:34;65.70;;;36.90;;
45408;SDS011;31162;51.076;3.784;2023-09-12T04:29:00;63.35;;;37.63;;
45408;SDS011;31162;51.076;3.784;2023-09-12T04:31:25;63.10;;;37.95;;
45408;SDS011;31162;51.076;3.784;2023-09-12T04:33:51;59.42;;;37.13;;
45408;SDS011;31162;51.076;3.784;2023-09-12T04:36:17;64.18;;;37.35;;
45408;SDS011;31162;51.076;3.784;2023-09-12T04:38:43;61.22;;;37.25;;
45408;SDS011;31162;51.076;3.784;2023-09-12T04:41:11;62.50;;;36.75;;
45408;SDS011;31162;51.076;3.784;2023-09-12T04:43:40;65.47;;;38.97;;
45408;SDS011;31162;51.076;3.784;2023-09-12T04:46:05;66.70;;;38.30;;
45408;SDS011;31162;51.076;3.784;2023-09-12T04:48:34;82.60;;;54.50;;
45408;SDS011;31162;51.076;3.784;2023-09-12T04:50:59;121.70;;;94.70;;
45408;SDS011;31162;51.076;3.784;2023-09-12T04:53:25;82.30;;;43.88;;
45408;SDS011;31162;51.076;3.784;2023-09-12T04:55:54;80.60;;;47.25;;
45408;SDS011;31162;51.076;3.784;2023-09-12T04:58:20;96.75;;;48.88;;
45408;SDS011;31162;51.076;3.784;2023-09-12T05:00:46;98.13;;;49.90;;
45408;SDS011;31162;51.076;3.784;2023-09-12T05:03:11;91.10;;;47.97;;
45408;SDS011;31162;51.076;3.784;2023-09-12T05:05:37;94.35;;;49.25;;
45408;SDS011;31162;51.076;3.784;2023-09-12T05:08:03;89.40;;;48.40;;
45408;SDS011;31162;51.076;3.784;2023-09-12T05:10:29;86.32;;;47.45;;
45408;SDS011;31162;51.076;3.784;2023-09-12T05:12:55;91.65;;;47.92;;
45408;SDS011;31162;51.076;3.784;2023-09-12T05:15:21;91.38;;;47.80;;
45408;SDS011;31162;51.076;3.784;2023-09-12T05:17:46;85.85;;;47.97;;
45408;SDS011;31162;51.076;3.784;2023-09-12T05:20:12;84.72;;;47.28;;
45408;SDS011;31162;51.076;3.784;2023-09-12T05:22:37;93.72;;;49.40;;
45408;SDS011;31162;51.076;3.784;2023-09-12T05:25:03;96.15;;;50.10;;
45408;SDS011;31162;51.076;3.784;2023-09-12T05:27:29;90.30;;;48.15;;
45408;SDS011;31162;51.076;3.784;2023-09-12T05:29:55;95.57;;;50.20;;
45408;SDS011;31162;51.076;3.784;2023-09-12T05:32:20;93.78;;;49.70;;
45408;SDS011;31162;51.076;3.784;2023-09-12T05:34:46;90.38;;;48.42;;
45408;SDS011;31162;51.076;3.784;2023-09-12T05:37:15;97.93;;;49.38;;
45408;SDS011;31162;51.076;3.784;2023-09-12T05:39:41;96.15;;;50.22;;
45408;SDS011;31162;51.076;3.784;2023-09-12T05:42:08;93.05;;;50.05;;
45408;SDS011;31162;51.076;3.784;2023-09-12T05:44:33;112.25;;;53.03;;
45408;SDS011;31162;51.076;3.784;2023-09-12T05:46:59;121.40;;;55.78;;
45408;SDS011;31162;51.076;3.784;2023-09-12T05:49:25;111.18;;;55.30;;
45408;SDS011;31162;51.076;3.784;2023-09-12T05:51:53;98.72;;;50.90;;
45408;SDS011;31162;51.076;3.784;2023-09-12T05:54:18;102.53;;;51.45;;
45408;SDS011;31162;51.076;3.784;2023-09-12T05:56:44;98.57;;;50.70;;
45408;SDS011;31162;51.076;3.784;2023-09-12T05:59:10;96.45;;;50.92;;
45408;SDS011;31162;51.076;3.784;2023-09-12T06:01:35;102.78;;;51.75;;
45408;SDS011;31162;51.076;3.784;2023-09-12T06:04:01;99.57;;;50.10;;
45408;SDS011;31162;51.076;3.784;2023-09-12T06:06:29;98.65;;;50.38;;
45408;SDS011;31162;51.076;3.784;2023-09-12T06:08:55;103.40;;;50.63;;
45408;SDS011;31162;51.076;3.784;2023-09-12T06:11:21;100.28;;;49.30;;
45408;SDS011;31162;51.076;3.784;2023-09-12T06:13:47;102.93;;;52.60;;
45408;SDS011;31162;51.076;3.784;2023-09-12T06:16:13;103.22;;;50.58;;
45408;SDS011;31162;51.076;3.784;2023-09-12T06:18:40;105.80;;;51.42;;
45408;SDS011;31162;51.076;3.784;2023-09-12T06:21:06;95.53;;;49.70;;
45408;SDS011;31162;51.076;3.784;2023-09-12T06:23:33;95.97;;;49.90;;
45408;SDS011;31162;51.076;3.784;2023-09-12T06:25:59;101.88;;;51.85;;
45408;SDS011;31162;51.076;3.784;2023-09-12T06:28:29;104.15;;;51.78;;
45408;SDS011;31162;51.076;3.784;2023-09-12T06:30:56;98.32;;;49.63;;
45408;SDS011;31162;51.076;3.784;2023-09-12T06:33:23;96.63;;;50.95;;
45408;SDS011;31162;51.076;3.784;2023-09-12T06:35:52;104.43;;;51.60;;
45408;SDS011;31162;51.076;3.784;2023-09-12T06:38:21;93.90;;;49.78;;
45408;SDS011;31162;51.076;3.784;2023-09-12T06:40:47;86.90;;;50.28;;
45408;SDS011;31162;51.076;3.784;2023-09-12T06:43:13;93.95;;;49.03;;
45408;SDS011;31162;51.076;3.784;2023-09-12T06:45:42;91.72;;;50.95;;
45408;SDS011;31162;51.076;3.784;2023-09-12T06:48:08;88.50;;;47.72;;
45408;SDS011;31162;51.076;3.784;2023-09-12T06:50:34;82.10;;;47.63;;
45408;SDS011;31162;51.076;3.784;2023-09-12T06:53:02;78.05;;;44.40;;
45408;SDS011;31162;51.076;3.784;2023-09-12T06:55:28;76.20;;;45.03;;
45408;SDS011;31162;51.076;3.784;2023-09-12T06:57:54;82.15;;;46.70;;
45408;SDS011;31162;51.076;3.784;2023-09-12T07:00:20;75.93;;;44.20;;
45408;SDS011;31162;51.076;3.784;2023-09-12T07:02:45;83.07;;;44.13;;
45408;SDS011;31162;51.076;3.784;2023-09-12T07:05:11;68.30;;;43.38;;
45408;SDS011;31162;51.076;3.784;2023-09-12T07:07:36;84.32;;;45.95;;
45408;SDS011;31162;51.076;3.784;2023-09-12T07:10:02;78.95;;;45.70;;
45408;SDS011;31162;51.076;3.784;2023-09-12T07:12:28;77.38;;;42.65;;
45408;SDS011;31162;51.076;3.784;2023-09-12T07:14:54;67.68;;;42.38;;
45408;SDS011;31162;51.076;3.784;2023-09-12T07:17:21;72.57;;;44.20;;
45408;SDS011;31162;51.076;3.784;2023-09-12T07:19:46;72.07;;;42.28;;
45408;SDS011;31162;51.076;3.784;2023-09-12T07:22:12;67.05;;;41.53;;
45408;SDS011;31162;51.076;3.784;2023-09-12T07:24:38;64.22;;;41.70;;
45408;SDS011;31162;51.076;3.784;2023-09-12T07:27:03;66.95;;;41.67;;
45408;SDS011;31162;51.076;3.784;2023-09-12T07:29:29;59.83;;;39.63;;
45408;SDS011;31162;51.076;3.784;2023-09-12T07:31:55;65.85;;;41.45;;
45408;SDS011;31162;51.076;3.784;2023-09-12T07:34:21;69.25;;;44.13;;
45408;SDS011;31162;51.076;3.784;2023-09-12T07:36:48;61.97;;;41.60;;
45408;SDS011;31162;51.076;3.784;2023-09-12T07:39:16;64.05;;;40.75;;
45408;SDS011;31162;51.076;3.784;2023-09-12T07:41:42;56.53;;;39.22;;
45408;SDS011;31162;51.076;3.784;2023-09-12T07:44:08;58.08;;;40.75;;
45408;SDS011;31162;51.076;3.784;2023-09-12T07:46:36;55.00;;;38.90;;
45408;SDS011;31162;51.076;3.784;2023-09-12T07:49:04;53.47;;;39.40;;
45408;SDS011;31162;51.076;3.784;2023-09-12T07:51:30;57.00;;;40.15;;
45408;SDS011;31162;51.076;3.784;2023-09-12T07:53:56;55.13;;;38.70;;
45408;SDS011;31162;51.076;3.784;2023-09-12T07:56:21;58.92;;;39.50;;
45408;SDS011;31162;51.076;3.784;2023-09-12T07:58:48;48.90;;;36.40;;
45408;SDS011;31162;51.076;3.784;2023-09-12T08:01:14;49.83;;;38.65;;
45408;SDS011;31162;51.076;3.784;2023-09-12T08:03:41;58.05;;;40.17;;
45408;SDS011;31162;51.076;3.784;2023-09-12T08:06:07;53.00;;;39.17;;
45408;SDS011;31162;51.076;3.784;2023-09-12T08:08:33;54.47;;;39.08;;
45408;SDS011;31162;51.076;3.784;2023-09-12T08:10:59;59.67;;;40.17;;
45408;SDS011;31162;51.076;3.784;2023-09-12T08:13:26;55.00;;;39.50;;
45408;SDS011;31162;51.076;3.784;2023-09-12T08:15:55;52.20;;;38.72;;
45408;SDS011;31162;51.076;3.784;2023-09-12T08:18:25;54.10;;;39.67;;
45408;SDS011;31162;51.076;3.784;2023-09-12T08:20:53;55.20;;;40.47;;
45408;SDS011;31162;51.076;3.784;2023-09-12T08:23:19;54.13;;;39.22;;
45408;SDS011;31162;51.076;3.784;2023-09-12T08:25:45;50.97;;;39.15;;
45408;SDS011;31162;51.076;3.784;2023-09-12T08:28:10;51.67;;;39.03;;
45408;SDS011;31162;51.076;3.784;2023-09-12T08:30:36;52.33;;;38.97;;
45408;SDS011;31162;51.076;3.784;2023-09-12T08:33:02;50.60;;;37.03;;
45408;SDS011;31162;51.076;3.784;2023-09-12T08:35:28;54.47;;;40.05;;
45408;SDS011;31162;51.076;3.784;2023-09-12T08:37:54;54.25;;;39.75;;
45408;SDS011;31162;51.076;3.784;2023-09-12T08:40:20;52.65;;;39.25;;
45408;SDS011;31162;51.076;3.784;2023-09-12T08:42:46;44.65;;;36.90;;
45408;SDS011;31162;51.076;3.784;2023-09-12T08:45:14;44.67;;;36.15;;
45408;SDS011;31162;51.076;3.784;2023-09-12T08:47:42;44.15;;;35.78;;
45408;SDS011;31162;51.076;3.784;2023-09-12T08:50:12;43.15;;;35.28;;
45408;SDS011;31162;51.076;3.784;2023-09-12T08:52:43;43.47;;;34.63;;
45408;SDS011;31162;51.076;3.784;2023-09-12T08:55:10;44.53;;;35.97;;
45408;SDS011;31162;51.076;3.784;2023-09-12T08:57:38;37.33;;;32.78;;
45408;SDS011;31162;51.076;3.784;2023-09-12T09:00:05;41.97;;;34.95;;
45408;SDS011;31162;51.076;3.784;2023-09-12T09:02:36;39.70;;;34.63;;
45408;SDS011;31162;51.076;3.784;2023-09-12T09:05:05;41.55;;;36.15;;
45408;SDS011;31162;51.076;3.784;2023-09-12T09:07:34;44.10;;;37.65;;
45408;SDS011;31162;51.076;3.784;2023-09-12T09:10:05;39.60;;;34.97;;
45408;SDS011;31162;51.076;3.784;2023-09-12T09:12:32;38.00;;;33.75;;
45408;SDS011;31162;51.076;3.784;2023-09-12T09:14:59;39.95;;;35.13;;
45408;SDS011;31162;51.076;3.784;2023-09-12T09:17:48;35.58;;;31.05;;
45408;SDS011;31162;51.076;3.784;2023-09-12T09:20:21;39.03;;;32.17;;
45408;SDS011;31162;51.076;3.784;2023-09-12T09:22:58;36.72;;;32.75;;
45408;SDS011;31162;51.076;3.784;2023-09-12T09:25:26;37.53;;;31.40;;
45408;SDS011;31162;51.076;3.784;2023-09-12T09:27:52;36.28;;;32.33;;
45408;SDS011;31162;51.076;3.784;2023-09-12T09:30:19;36.78;;;32.55;;
45408;SDS011;31162;51.076;3.784;2023-09-12T09:33:04;38.70;;;32.75;;
45408;SDS011;31162;51.076;3.784;2023-09-12T09:35:30;40.03;;;33.08;;
45408;SDS011;31162;51.076;3.784;2023-09-12T09:37:56;39.53;;;33.38;;
45408;SDS011;31162;51.076;3.784;2023-09-12T09:40:22;35.45;;;31.73;;
45408;SDS011;31162;51.076;3.784;2023-09-12T09:42:52;35.78;;;32.08;;
45408;SDS011;31162;51.076;3.784;2023-09-12T09:45:26;35.83;;;31.70;;
45408;SDS011;31162;51.076;3.784;2023-09-12T09:47:56;36.35;;;32.03;;
45408;SDS011;31162;51.076;3.784;2023-09-12T09:50:23;35.95;;;32.05;;
45408;SDS011;31162;51.076;3.784;2023-09-12T09:52:53;35.75;;;31.90;;
45408;SDS011;31162;51.076;3.784;2023-09-12T09:55:22;38.55;;;34.03;;
45408;SDS011;31162;51.076;3.784;2023-09-12T09:57:49;40.05;;;33.42;;
45408;SDS011;31162;51.076;3.784;2023-09-12T10:00:17;38.47;;;33.83;;
45408;SDS011;31162;51.076;3.784;2023-09-12T10:02:44;36.42;;;32.10;;
45408;SDS011;31162;51.076;3.784;2023-09-12T10:05:12;32.58;;;29.10;;
45408;SDS011;31162;51.076;3.784;2023-09-12T10:07:39;33.45;;;29.38;;
45408;SDS011;31162;51.076;3.784;2023-09-12T10:10:07;32.28;;;28.77;;
45408;SDS011;31162;51.076;3.784;2023-09-12T10:12:36;31.70;;;28.48;;
45408;SDS011;31162;51.076;3.784;2023-09-12T10:15:06;33.50;;;29.98;;
45408;SDS011;31162;51.076;3.784;2023-09-12T10:17:36;33.30;;;28.85;;
45408;SDS011;31162;51.076;3.784;2023-09-12T10:20:08;34.78;;;31.17;;
45408;SDS011;31162;51.076;3.784;2023-09-12T10:28:04;30.02;;;26.83;;
45408;SDS011;31162;51.076;3.784;2023-09-12T10:30:31;29.73;;;25.25;;
45408;SDS011;31162;51.076;3.784;2023-09-12T10:32:59;28.52;;;25.60;;
45408;SDS011;31162;51.076;3.784;2023-09-12T10:35:28;27.27;;;24.50;;
45408;SDS011;31162;51.076;3.784;2023-09-12T10:37:55;30.45;;;27.23;;
45408;SDS011;31162;51.076;3.784;2023-09-12T10:40:28;29.85;;;26.92;;
45408;SDS011;31162;51.076;3.784;2023-09-12T10:42:56;29.20;;;26.15;;
45408;SDS011;31162;51.076;3.784;2023-09-12T10:45:22;27.35;;;24.50;;
45408;SDS011;31162;51.076;3.784;2023-09-12T10:47:48;26.67;;;24.20;;
45408;SDS011;31162;51.076;3.784;2023-09-12T10:50:14;27.25;;;24.55;;
45408;SDS011;31162;51.076;3.784;2023-09-12T10:52:40;25.63;;;22.98;;
45408;SDS011;31162;51.076;3.784;2023-09-12T10:55:07;27.40;;;24.88;;
45408;SDS011;31162;51.076;3.784;2023-09-12T10:57:33;31.25;;;27.95;;
45408;SDS011;31162;51.076;3.784;2023-09-12T11:02:36;29.33;;;25.95;;
45408;SDS011;31162;51.076;3.784;2023-09-12T11:05:04;30.23;;;26.88;;
45408;SDS011;31162;51.076;3.784;2023-09-12T11:08:06;28.67;;;25.88;;
45408;SDS011;31162;51.076;3.784;2023-09-12T11:10:31;26.42;;;23.73;;
45408;SDS011;31162;51.076;3.784;2023-09-12T11:12:57;24.00;;;21.90;;
45408;SDS011;31162;51.076;3.784;2023-09-12T11:15:24;23.00;;;20.80;;
45408;SDS011;31162;51.076;3.784;2023-09-12T11:18:03;23.42;;;21.02;;
45408;SDS011;31162;51.076;3.784;2023-09-12T11:20:48;23.02;;;21.08;;
45408;SDS011;31162;51.076;3.784;2023-09-12T11:23:28;25.02;;;22.52;;
45408;SDS011;31162;51.076;3.784;2023-09-12T11:26:07;26.23;;;23.73;;
45408;SDS011;31162;51.076;3.784;2023-09-12T11:28:35;24.10;;;22.00;;
45408;SDS011;31162;51.076;3.784;2023-09-12T11:31:01;24.40;;;22.30;;
45408;SDS011;31162;51.076;3.784;2023-09-12T11:33:27;23.65;;;21.60;;
45408;SDS011;31162;51.076;3.784;2023-09-12T11:35:53;25.33;;;22.77;;
45408;SDS011;31162;51.076;3.784;2023-09-12T11:38:29;23.40;;;21.15;;
45408;SDS011;31162;51.076;3.784;2023-09-12T11:40:56;25.17;;;22.77;;
45408;SDS011;31162;51.076;3.784;2023-09-12T11:43:24;24.73;;;22.15;;
45408;SDS011;31162;51.076;3.784;2023-09-12T11:45:51;25.02;;;22.58;;
45408;SDS011;31162;51.076;3.784;2023-09-12T11:48:19;24.27;;;21.77;;
45408;SDS011;31162;51.076;3.784;2023-09-12T11:50:55;23.95;;;21.63;;
45408;SDS011;31162;51.076;3.784;2023-09-12T11:53:22;23.63;;;21.13;;
45408;SDS011;31162;51.076;3.784;2023-09-12T11:55:51;27.23;;;24.85;;
45408;SDS011;31162;51.076;3.784;2023-09-12T11:58:24;27.45;;;24.70;;
45408;SDS011;31162;51.076;3.784;2023-09-12T12:00:53;29.13;;;26.17;;
45408;SDS011;31162;51.076;3.784;2023-09-12T12:03:20;27.98;;;25.15;;
45408;SDS011;31162;51.076;3.784;2023-09-12T12:05:50;26.17;;;23.58;;
45408;SDS011;31162;51.076;3.784;2023-09-12T12:08:17;25.85;;;23.42;;
45408;SDS011;31162;51.076;3.784;2023-09-12T12:10:43;27.50;;;24.83;;
45408;SDS011;31162;51.076;3.784;2023-09-12T12:13:20;25.65;;;23.05;;
45408;SDS011;31162;51.076;3.784;2023-09-12T12:15:46;26.65;;;23.92;;
45408;SDS011;31162;51.076;3.784;2023-09-12T12:18:12;26.20;;;23.50;;
45408;SDS011;31162;51.076;3.784;2023-09-12T12:20:38;26.73;;;23.92;;
45408;SDS011;31162;51.076;3.784;2023-09-12T12:23:04;24.75;;;22.15;;
45408;SDS011;31162;51.076;3.784;2023-09-12T12:25:33;26.13;;;23.52;;
45408;SDS011;31162;51.076;3.784;2023-09-12T12:27:59;23.25;;;20.92;;
45408;SDS011;31162;51.076;3.784;2023-09-12T12:30:26;26.52;;;23.20;;
45408;SDS011;31162;51.076;3.784;2023-09-12T12:33:00;25.70;;;23.00;;
45408;SDS011;31162;51.076;3.784;2023-09-12T12:35:27;24.65;;;22.20;;
45408;SDS011;31162;51.076;3.784;2023-09-12T12:37:54;24.85;;;22.25;;
45408;SDS011;31162;51.076;3.784;2023-09-12T12:40:23;25.45;;;22.83;;
45408;SDS011;31162;51.076;3.784;2023-09-12T12:42:50;24.92;;;22.42;;
45408;SDS011;31162;51.076;3.784;2023-09-12T12:45:17;24.73;;;21.52;;
45408;SDS011;31162;51.076;3.784;2023-09-12T12:47:44;26.92;;;24.10;;
45408;SDS011;31162;51.076;3.784;2023-09-12T12:50:13;25.00;;;22.40;;
45408;SDS011;31162;51.076;3.784;2023-09-12T12:52:40;24.98;;;22.38;;
45408;SDS011;31162;51.076;3.784;2023-09-12T12:55:07;24.30;;;21.75;;
45408;SDS011;31162;51.076;3.784;2023-09-12T12:57:36;25.23;;;22.77;;
45408;SDS011;31162;51.076;3.784;2023-09-12T13:00:12;24.20;;;21.75;;
45408;SDS011;31162;51.076;3.784;2023-09-12T13:02:43;25.15;;;22.67;;
45408;SDS011;31162;51.076;3.784;2023-09-12T13:08:07;26.67;;;23.50;;
45408;SDS011;31162;51.076;3.784;2023-09-12T13:10:33;25.75;;;23.08;;
45408;SDS011;31162;51.076;3.784;2023-09-12T13:12:59;28.80;;;23.70;;
45408;SDS011;31162;51.076;3.784;2023-09-12T13:15:24;26.60;;;23.83;;
45408;SDS011;31162;51.076;3.784;2023-09-12T13:17:50;34.10;;;24.65;;
45408;SDS011;31162;51.076;3.784;2023-09-12T13:20:15;26.83;;;24.20;;
45408;SDS011;31162;51.076;3.784;2023-09-12T13:22:41;27.40;;;24.67;;
45408;SDS011;31162;51.076;3.784;2023-09-12T13:25:08;27.27;;;22.83;;
45408;SDS011;31162;51.076;3.784;2023-09-12T13:27:34;25.65;;;22.88;;
45408;SDS011;31162;51.076;3.784;2023-09-12T13:30:00;21.98;;;19.70;;
45408;SDS011;31162;51.076;3.784;2023-09-12T13:32:25;24.95;;;22.25;;
45408;SDS011;31162;51.076;3.784;2023-09-12T13:34:52;23.00;;;20.70;;
45408;SDS011;31162;51.076;3.784;2023-09-12T13:37:18;22.63;;;20.20;;
45408;SDS011;31162;51.076;3.784;2023-09-12T13:39:44;25.35;;;21.83;;
45408;SDS011;31162;51.076;3.784;2023-09-12T13:42:17;26.55;;;23.33;;
45408;SDS011;31162;51.076;3.784;2023-09-12T13:44:49;26.85;;;24.05;;
45408;SDS011;31162;51.076;3.784;2023-09-12T13:47:15;23.55;;;21.25;;
45408;SDS011;31162;51.076;3.784;2023-09-12T13:49:46;29.48;;;26.25;;
45408;SDS011;31162;51.076;3.784;2023-09-12T13:52:13;28.02;;;25.15;;
45408;SDS011;31162;51.076;3.784;2023-09-12T13:54:39;27.77;;;24.95;;
45408;SDS011;31162;51.076;3.784;2023-09-12T13:57:05;48.80;;;44.20;;
45408;SDS011;31162;51.076;3.784;2023-09-12T13:59:31;27.77;;;24.77;;
45408;SDS011;31162;51.076;3.784;2023-09-12T14:01:56;27.20;;;23.08;;
45408;SDS011;31162;51.076;3.784;2023-09-12T14:04:22;23.55;;;21.10;;
45408;SDS011;31162;51.076;3.784;2023-09-12T14:06:50;28.67;;;23.02;;
45408;SDS011;31162;51.076;3.784;2023-09-12T14:09:16;26.67;;;22.23;;
45408;SDS011;31162;51.076;3.784;2023-09-12T14:11:42;24.73;;;22.23;;
45408;SDS011;31162;51.076;3.784;2023-09-12T14:14:08;25.63;;;22.98;;
45408;SDS011;31162;51.076;3.784;2023-09-12T14:16:34;22.55;;;20.30;;
45408;SDS011;31162;51.076;3.784;2023-09-12T14:18:59;20.05;;;18.05;;
45408;SDS011;31162;51.076;3.784;2023-09-12T14:21:25;17.92;;;16.05;;
45408;SDS011;31162;51.076;3.784;2023-09-12T14:23:53;23.60;;;20.90;;
45408;SDS011;31162;51.076;3.784;2023-09-12T14:26:18;22.08;;;19.65;;
45408;SDS011;31162;51.076;3.784;2023-09-12T14:28:44;17.92;;;16.02;;
45408;SDS011;31162;51.076;3.784;2023-09-12T14:31:11;17.38;;;15.60;;
45408;SDS011;31162;51.076;3.784;2023-09-12T14:33:39;18.20;;;16.40;;
45408;SDS011;31162;51.076;3.784;2023-09-12T14:36:06;20.17;;;18.05;;
45408;SDS011;31162;51.076;3.784;2023-09-12T14:38:33;20.00;;;17.83;;